Aérodrome :
LOGIN :

S'inscrire | Disclaimer

   EN    FR    IT 

 










Légende :    VFR   VFR Marginal   IFR   IFR Intensif   IFR Très Intensif
Visi : 
Plafond : 
>= 8 km
>= 3000ft
5 à 8 km
1000 à 3000 ft
1500m à 5 km
500 à 1000 ft
800 à 1500m
200 à 500 ft
< 800m
< 200 ft
Symboles :   Orages  Brouillard  Fortes neiges  Fortes précipitations  Vent > 20 kt
SIGMETs :   Divers  Orages  Givrage  Turbulence  Onde Orograph.  Cendres Volcan.







- Altitude de l'aérodrome : 465 ft
- Code IATA : LEJ


EDDP - Leipzig Halle

DERNIER METAR :
  • 211020Z 19006KT 160V230 CAVOK 18/06 Q1023 NOSIG

METARs EXPIRÉS :
  • 210950Z 19009KT CAVOK 17/05 Q1024 NOSIG
  • 210920Z 20007KT 160V220 CAVOK 16/05 Q1024 NOSIG
  • 210850Z 18008KT 150V210 CAVOK 15/05 Q1024 NOSIG
  • 210820Z 18008KT CAVOK 14/06 Q1024 NOSIG
  • 210750Z 17007KT CAVOK 13/06 Q1024 NOSIG

TAF TAF EDDP
Valide du 21 à 06h jusqu'au 22 à 06h UTC


210500Z 2106/2206 17005KT CAVOK
BECMG 2111/2113 11006KT
Pas de NOTAMs connus pour ce terrain.



MET'MAP, la Météo Aéronautique d'un coup d'oeil ! - Copyright ORBIFLY Décembre 2007 - Disclaimer

ORBIFLY MET'MAP TEAM :

Programmation & Développement : Alexandra Zaïnal
Conception & Développement : Baudouin d'Aumeries
Co-Programmation & Développement : Marc-Olivier Méhu
Soutien technique & logistique : Manuel Goepfert

Contact : metmap@orbifly.com




SOURCES & CREDITS :

   NOAA